createdAt,value
2018-08-20T00:00:34.643Z,120.30
2018-08-20T00:01:34.657Z,128.50
2018-08-20T00:02:34.709Z,123.60
2018-08-20T00:03:34.779Z,126.80
2018-08-20T00:04:35.080Z,131.60
2018-08-20T00:05:34.847Z,130.40
2018-08-20T00:06:34.903Z,130.10
2018-08-20T00:07:34.916Z,128.00
2018-08-20T00:08:34.949Z,125.60
2018-08-20T00:09:35.021Z,124.80
2018-08-20T00:10:35.064Z,133.20
2018-08-20T00:11:35.108Z,128.60
2018-08-20T00:12:35.142Z,130.50
2018-08-20T00:13:35.191Z,126.30
2018-08-20T00:14:35.236Z,125.80
2018-08-20T00:15:35.264Z,127.70
2018-08-20T00:16:35.330Z,137.70
2018-08-20T00:17:35.410Z,138.20
2018-08-20T00:18:35.414Z,134.50
2018-08-20T00:19:35.452Z,141.20
2018-08-20T00:20:35.496Z,154.20
2018-08-20T00:21:35.550Z,148.20
2018-08-20T00:22:35.580Z,151.00
2018-08-20T00:23:35.631Z,154.80
2018-08-20T00:24:35.809Z,144.00
2018-08-20T00:25:35.707Z,147.20
2018-08-20T00:26:35.753Z,150.30
2018-08-20T00:27:35.809Z,149.70
2018-08-20T00:28:35.874Z,145.70
2018-08-20T00:29:35.911Z,136.10
2018-08-20T00:30:35.925Z,135.50
2018-08-20T00:31:35.990Z,120.00
2018-08-20T00:32:36.032Z,131.20
2018-08-20T00:33:36.079Z,116.10
2018-08-20T00:34:36.126Z,113.60
2018-08-20T00:35:36.152Z,119.80
2018-08-20T00:36:36.190Z,108.50
2018-08-20T00:37:36.261Z,113.80
2018-08-20T00:38:36.310Z,114.30
2018-08-20T00:39:36.534Z,104.50
2018-08-20T00:40:36.387Z,107.60
2018-08-20T00:41:36.440Z,119.30
2018-08-20T00:42:36.491Z,103.20
2018-08-20T00:43:36.530Z,91.30
2018-08-20T00:44:36.567Z,94.90
2018-08-20T00:45:36.603Z,94.80
2018-08-20T00:46:36.640Z,97.00
2018-08-20T00:47:36.703Z,102.20
2018-08-20T00:48:36.741Z,100.70
2018-08-20T00:49:36.771Z,99.00
2018-08-20T00:50:36.970Z,98.10
2018-08-20T00:51:36.867Z,85.40
2018-08-20T00:52:36.918Z,95.80
2018-08-20T00:53:36.987Z,89.60
2018-08-20T00:54:36.988Z,81.20
2018-08-20T00:55:37.042Z,84.60
2018-08-20T00:56:37.110Z,104.80
2018-08-20T00:57:37.124Z,88.20
2018-08-20T00:58:37.181Z,80.10
2018-08-20T00:59:37.242Z,79.50
2018-08-20T01:00:37.265Z,79.40
2018-08-20T01:01:37.506Z,81.80
2018-08-20T01:02:37.397Z,85.00
2018-08-20T01:03:37.421Z,83.90
2018-08-20T01:04:37.453Z,82.40
2018-08-20T01:05:37.487Z,77.70
2018-08-20T01:06:37.551Z,81.80
2018-08-20T01:07:37.564Z,85.00
2018-08-20T01:08:37.607Z,88.40
2018-08-20T01:09:37.659Z,88.00
2018-08-20T01:10:37.724Z,87.60
2018-08-20T01:11:37.765Z,90.30
2018-08-20T01:12:37.797Z,89.60
2018-08-20T01:13:37.894Z,88.90
2018-08-20T01:14:37.910Z,93.30
2018-08-20T01:15:37.944Z,92.70
2018-08-20T01:16:37.989Z,97.00
2018-08-20T01:17:38.036Z,103.50
2018-08-20T01:18:38.165Z,99.30
2018-08-20T01:19:38.125Z,84.10
2018-08-20T01:20:38.142Z,79.80
2018-08-20T01:21:38.211Z,80.30
2018-08-20T01:22:38.227Z,75.30
2018-08-20T01:23:38.293Z,76.30
2018-08-20T01:24:38.480Z,85.00
2018-08-20T01:25:38.358Z,74.30
2018-08-20T01:26:38.436Z,86.80
2018-08-20T01:27:38.472Z,79.20
2018-08-20T01:28:38.529Z,76.80
2018-08-20T01:29:38.548Z,80.00
2018-08-20T01:30:38.602Z,82.10
2018-08-20T01:31:38.655Z,81.00
2018-08-20T01:32:38.700Z,82.40
2018-08-20T01:33:38.774Z,90.60
2018-08-20T01:34:38.934Z,84.40
2018-08-20T01:35:38.818Z,83.00
2018-08-20T01:36:38.882Z,86.30
2018-08-20T01:37:38.919Z,88.30
2018-08-20T01:38:38.970Z,96.40
2018-08-20T01:39:39.025Z,102.10
2018-08-20T01:40:39.056Z,98.90
2018-08-20T01:41:39.249Z,99.40
2018-08-20T01:42:39.177Z,97.00
2018-08-20T01:43:39.181Z,105.10
2018-08-20T01:44:39.215Z,114.30
2018-08-20T01:45:39.276Z,103.00
2018-08-20T01:46:39.322Z,100.30
2018-08-20T01:47:39.386Z,100.70
2018-08-20T01:48:39.411Z,107.70
2018-08-20T01:49:39.443Z,107.00
2018-08-20T01:50:39.528Z,113.20
2018-08-20T01:51:39.537Z,121.40
2018-08-20T01:52:39.670Z,132.60
2018-08-20T01:53:39.604Z,136.40
2018-08-20T01:54:39.704Z,149.30
2018-08-20T01:55:39.710Z,130.70
2018-08-20T01:56:39.750Z,138.90
2018-08-20T01:57:39.784Z,144.40
2018-08-20T01:58:39.847Z,160.60
2018-08-20T01:59:40.023Z,141.30
2018-08-20T02:00:39.942Z,138.90
2018-08-20T02:01:40.009Z,151.40
2018-08-20T02:02:40.046Z,150.60
2018-08-20T02:03:40.045Z,155.20
2018-08-20T02:04:40.121Z,149.90
2018-08-20T02:05:40.191Z,157.30
2018-08-20T02:06:40.178Z,151.00
2018-08-20T02:07:40.307Z,157.90
2018-08-20T02:08:40.338Z,159.60
2018-08-20T02:09:40.528Z,156.20
2018-08-20T02:10:40.349Z,137.10
2018-08-20T02:11:40.468Z,139.90
2018-08-20T02:12:40.484Z,149.00
2018-08-20T02:13:40.482Z,166.90
2018-08-20T02:14:40.584Z,154.80
2018-08-20T02:15:40.708Z,151.50
2018-08-20T02:16:40.630Z,152.80
2018-08-20T02:17:40.705Z,157.70
2018-08-20T02:18:40.698Z,144.20
2018-08-20T02:19:40.803Z,157.00
2018-08-20T02:20:40.784Z,156.80
2018-08-20T02:21:40.997Z,166.50
2018-08-20T02:22:40.875Z,176.90
2018-08-20T02:23:40.961Z,173.50
2018-08-20T02:24:40.959Z,184.90
2018-08-20T02:25:41.008Z,180.90
2018-08-20T02:26:41.117Z,168.30
2018-08-20T02:27:41.342Z,165.30
2018-08-20T02:28:41.141Z,190.40
2018-08-20T02:29:41.230Z,195.20
2018-08-20T02:30:41.236Z,190.80
2018-08-20T02:31:41.282Z,192.50
2018-08-20T02:32:41.384Z,193.50
2018-08-20T02:33:41.632Z,205.50
2018-08-20T02:34:41.500Z,199.40
2018-08-20T02:35:41.447Z,200.00
2018-08-20T02:36:41.482Z,185.90
2018-08-20T02:37:41.602Z,193.20
2018-08-20T02:38:41.593Z,196.30
2018-08-20T02:39:41.767Z,237.80
2018-08-20T02:40:41.648Z,223.50
2018-08-20T02:41:41.722Z,194.90
2018-08-20T02:42:41.769Z,216.60
2018-08-20T02:43:41.771Z,207.30
2018-08-20T02:44:41.840Z,204.70
2018-08-20T02:45:41.889Z,179.50
2018-08-20T02:46:41.934Z,181.00
2018-08-20T02:47:41.981Z,195.10
2018-08-20T02:48:42.033Z,194.30
2018-08-20T02:49:42.051Z,183.00
2018-08-20T02:50:42.290Z,185.10
2018-08-20T02:51:42.143Z,174.90
2018-08-20T02:52:42.202Z,128.00
2018-08-20T02:53:42.228Z,164.50
2018-08-20T02:54:42.317Z,146.60
2018-08-20T02:55:42.330Z,141.20
2018-08-20T02:56:42.352Z,123.10
2018-08-20T02:57:42.557Z,144.70
2018-08-20T02:58:42.455Z,132.40
2018-08-20T02:59:42.499Z,139.00
2018-08-20T03:00:42.535Z,144.10
2018-08-20T03:02:42.620Z,147.50
2018-08-20T03:03:42.880Z,123.70
2018-08-20T03:04:42.707Z,125.10
2018-08-20T03:06:42.840Z,134.60
2018-08-20T03:07:42.837Z,129.80
2018-08-20T03:08:42.859Z,125.50
2018-08-20T03:10:42.946Z,124.40
2018-08-20T03:13:43.074Z,122.20
2018-08-20T03:14:43.134Z,114.70
2018-08-20T03:15:43.335Z,126.80
2018-08-20T03:16:43.207Z,133.60
2018-08-20T03:17:43.262Z,115.70
2018-08-20T03:18:43.328Z,127.30
2018-08-20T03:20:45.046Z,120.20
2018-08-20T03:21:43.430Z,109.30
2018-08-20T03:22:43.496Z,104.20
2018-08-20T03:23:43.549Z,95.50
2018-08-20T03:25:43.627Z,122.50
2018-08-20T03:26:43.655Z,104.10
2018-08-20T03:27:43.896Z,106.30
2018-08-20T03:28:43.736Z,100.60
2018-08-20T03:29:43.803Z,110.70
2018-08-20T03:30:43.831Z,110.00
2018-08-20T03:32:43.917Z,109.50
2018-08-20T03:33:44.122Z,128.90
2018-08-20T03:36:44.100Z,133.40
2018-08-20T03:37:44.139Z,188.90
2018-08-20T03:38:44.195Z,104.50
2018-08-20T03:39:44.222Z,111.50
2018-08-20T03:41:44.296Z,102.00
2018-08-20T03:42:44.387Z,105.10
2018-08-20T03:43:45.897Z,103.30
2018-08-20T03:45:44.464Z,109.50
2018-08-20T03:46:44.539Z,102.10
2018-08-20T03:48:44.621Z,105.80
2018-08-20T03:49:44.646Z,133.50
2018-08-20T03:50:44.846Z,92.40
2018-08-20T03:51:44.749Z,100.00
2018-08-20T03:52:44.779Z,94.80
2018-08-20T03:53:44.820Z,102.20
2018-08-20T03:54:44.887Z,95.70
2018-08-20T03:55:44.907Z,86.70
2018-08-20T03:56:45.108Z,86.50
2018-08-20T03:57:44.998Z,94.80
2018-08-20T03:58:45.087Z,94.10
2018-08-20T03:59:45.088Z,98.80
2018-08-20T04:00:45.148Z,85.50
2018-08-20T04:01:45.179Z,93.20
2018-08-20T04:02:45.360Z,106.80
2018-08-20T04:03:45.243Z,94.50
2018-08-20T04:05:45.334Z,86.70
2018-08-20T04:06:45.384Z,104.50
2018-08-20T04:07:45.500Z,96.60
2018-08-20T04:08:45.490Z,84.50
2018-08-20T04:09:45.503Z,93.30
2018-08-20T04:12:45.642Z,103.60
2018-08-20T04:14:46.185Z,92.20
2018-08-20T04:16:45.789Z,88.80
2018-08-20T04:17:45.855Z,116.40
2018-08-20T04:19:45.936Z,113.00
2018-08-20T04:20:45.975Z,163.40
2018-08-20T04:22:46.058Z,94.20
2018-08-20T04:23:46.820Z,102.50
2018-08-20T04:24:46.292Z,98.10
2018-08-20T04:25:46.222Z,103.20
2018-08-20T04:26:46.240Z,131.30
2018-08-20T04:27:46.329Z,105.80
2018-08-20T04:28:46.757Z,116.30
2018-08-20T04:29:46.367Z,104.30
2018-08-20T04:30:46.474Z,114.40
2018-08-20T04:32:46.502Z,105.70
2018-08-20T04:34:46.583Z,113.50
2018-08-20T04:35:46.668Z,105.10
2018-08-20T04:36:46.780Z,128.00
2018-08-20T04:38:46.746Z,125.30
2018-08-20T04:39:46.831Z,116.10
2018-08-20T04:40:46.853Z,109.20
2018-08-20T04:41:47.031Z,120.10
2018-08-20T04:42:46.917Z,106.80
2018-08-20T04:43:46.991Z,103.40
2018-08-20T04:44:47.031Z,111.20
2018-08-20T04:46:47.114Z,131.90
2018-08-20T04:47:47.159Z,110.80
2018-08-20T04:48:47.244Z,111.20
2018-08-20T04:49:47.273Z,113.00
2018-08-20T04:50:47.378Z,106.90
2018-08-20T04:51:47.323Z,99.10
2018-08-20T04:52:48.850Z,110.70
2018-08-20T04:53:47.403Z,142.40
2018-08-20T04:54:47.421Z,103.10
2018-08-20T04:56:47.526Z,115.60
2018-08-20T04:58:47.613Z,102.10
2018-08-20T05:00:47.737Z,133.60
2018-08-20T05:01:47.745Z,98.60
2018-08-20T05:02:47.782Z,100.70
2018-08-20T05:03:47.840Z,115.80
2018-08-20T05:05:47.929Z,206.60
2018-08-20T05:06:47.941Z,94.30
2018-08-20T05:07:47.997Z,121.10
2018-08-20T05:09:48.271Z,147.00
2018-08-20T05:10:48.131Z,106.80
2018-08-20T05:11:48.168Z,110.90
2018-08-20T05:13:48.274Z,123.20
2018-08-20T05:14:48.300Z,118.80
2018-08-20T05:15:48.343Z,271.30
2018-08-20T05:16:48.400Z,125.70
2018-08-20T05:17:48.435Z,127.50
2018-08-20T05:19:48.507Z,121.50
2018-08-20T05:21:50.250Z,128.50
2018-08-20T05:22:48.642Z,127.20
2018-08-20T05:23:48.687Z,115.50
2018-08-20T05:24:48.700Z,149.80
2018-08-20T05:25:48.872Z,126.20
2018-08-20T05:26:48.869Z,170.00
2018-08-20T05:27:48.838Z,123.80
2018-08-20T05:28:49.037Z,127.20
2018-08-20T05:30:48.976Z,231.10
2018-08-20T05:31:49.025Z,132.90
2018-08-20T05:32:49.138Z,135.60
2018-08-20T05:33:50.765Z,131.10
2018-08-20T05:34:50.708Z,138.70
2018-08-20T05:35:49.232Z,129.60
2018-08-20T05:36:49.246Z,161.90
2018-08-20T05:38:49.324Z,139.10
2018-08-20T05:39:49.410Z,139.50
2018-08-20T05:40:49.569Z,146.90
2018-08-20T05:42:49.476Z,140.90
2018-08-20T05:43:49.533Z,134.10
2018-08-20T05:44:49.629Z,147.60
2018-08-20T05:46:49.861Z,143.00
2018-08-20T05:47:49.693Z,146.90
2018-08-20T05:48:50.406Z,145.00
2018-08-20T05:49:49.808Z,161.90
2018-08-20T05:50:49.841Z,176.40
2018-08-20T05:51:49.853Z,155.80
2018-08-20T05:52:49.903Z,148.50
2018-08-20T05:53:49.982Z,165.50
2018-08-20T05:54:49.988Z,157.60
2018-08-20T05:55:50.077Z,164.40
2018-08-20T05:56:50.130Z,171.50
2018-08-20T05:57:50.271Z,198.70
2018-08-20T05:58:50.157Z,149.60
2018-08-20T06:00:50.263Z,179.40
2018-08-20T06:02:50.319Z,190.60
2018-08-20T06:04:50.657Z,189.20
2018-08-20T06:05:50.495Z,172.70
2018-08-20T06:06:50.507Z,186.90
2018-08-20T06:07:50.594Z,210.50
2018-08-20T06:08:50.592Z,183.70
2018-08-20T06:09:52.205Z,196.50
2018-08-20T06:11:50.763Z,208.50
2018-08-20T06:12:50.759Z,211.70
2018-08-20T06:13:50.806Z,229.80
2018-08-20T06:14:50.859Z,221.40
2018-08-20T06:15:50.900Z,241.00
2018-08-20T06:16:50.932Z,234.50
2018-08-20T06:17:50.984Z,230.10
2018-08-20T06:18:51.025Z,227.20
2018-08-20T06:20:51.102Z,226.40
2018-08-20T06:23:51.273Z,222.10
2018-08-20T06:24:51.326Z,208.10
2018-08-20T06:25:51.302Z,219.20
2018-08-20T06:27:51.398Z,226.40
2018-08-20T06:28:51.464Z,238.40
2018-08-20T06:29:51.471Z,258.00
2018-08-20T06:30:51.533Z,243.80
2018-08-20T06:31:51.575Z,234.00
2018-08-20T06:32:51.667Z,327.70
2018-08-20T06:36:51.835Z,236.70
2018-08-20T06:37:51.824Z,245.80
2018-08-20T06:39:51.914Z,273.10
2018-08-20T06:40:51.949Z,263.60
2018-08-20T06:41:51.986Z,257.90
2018-08-20T06:42:52.043Z,282.60
2018-08-20T06:43:52.091Z,277.70
2018-08-20T06:44:52.131Z,282.70
2018-08-20T06:45:52.202Z,273.70
2018-08-20T06:46:52.194Z,256.60
2018-08-20T06:47:52.283Z,273.70
2018-08-20T06:48:52.433Z,421.00
2018-08-20T06:50:52.357Z,270.90
2018-08-20T06:52:52.483Z,279.60
2018-08-20T06:53:52.489Z,268.20
2018-08-20T06:55:52.591Z,283.20
2018-08-20T06:56:52.631Z,265.60
2018-08-20T06:58:52.690Z,283.80
2018-08-20T07:01:52.847Z,386.70
2018-08-20T07:02:52.872Z,284.30
2018-08-20T07:03:52.921Z,284.70
2018-08-20T07:04:52.973Z,265.10
2018-08-20T07:05:53.193Z,289.50
2018-08-20T07:06:53.053Z,311.90
2018-08-20T07:07:53.091Z,328.50
2018-08-20T07:09:53.235Z,273.30
2018-08-20T07:10:53.211Z,241.20
2018-08-20T07:11:53.322Z,249.30
2018-08-20T07:13:53.340Z,269.70
2018-08-20T07:15:55.132Z,277.90
2018-08-20T07:16:53.621Z,282.50
2018-08-20T07:17:53.508Z,267.30
2018-08-20T07:19:53.646Z,268.20
2018-08-20T07:20:53.677Z,245.50
2018-08-20T07:21:55.541Z,277.80
2018-08-20T07:22:53.865Z,313.50
2018-08-20T07:23:53.861Z,273.00
2018-08-20T07:24:53.851Z,313.80
2018-08-20T07:25:53.891Z,320.50
2018-08-20T07:26:53.971Z,291.60
2018-08-20T07:27:54.038Z,333.70
2018-08-20T07:28:54.087Z,270.20
2018-08-20T07:29:54.044Z,265.70
2018-08-20T07:30:54.209Z,266.40
2018-08-20T07:32:54.216Z,265.80
2018-08-20T07:33:54.433Z,274.20
2018-08-20T07:34:54.360Z,276.70
2018-08-20T07:35:54.271Z,263.30
2018-08-20T07:36:54.308Z,298.30
2018-08-20T07:37:54.368Z,276.80
2018-08-20T07:38:54.396Z,252.50
2018-08-20T07:39:54.541Z,263.20
2018-08-20T07:40:54.478Z,320.50
2018-08-20T07:42:54.540Z,307.90
2018-08-20T07:43:54.597Z,279.80
2018-08-20T07:44:54.688Z,289.00
2018-08-20T07:45:54.841Z,290.90
2018-08-20T07:47:54.769Z,272.30
2018-08-20T07:48:54.806Z,282.60
2018-08-20T07:49:54.847Z,308.30
2018-08-20T07:50:55.114Z,249.80
2018-08-20T07:51:54.968Z,265.50
2018-08-20T07:52:54.994Z,423.30
2018-08-20T07:53:55.028Z,254.50
2018-08-20T07:54:55.101Z,267.30
2018-08-20T07:56:55.309Z,536.90
2018-08-20T07:57:55.245Z,264.70
2018-08-20T07:58:55.236Z,291.00
2018-08-20T07:59:55.279Z,240.00
2018-08-20T08:00:55.365Z,259.90
2018-08-20T08:01:55.458Z,271.30
2018-08-20T08:02:57.058Z,246.40
2018-08-20T08:03:55.494Z,249.40
2018-08-20T08:04:55.528Z,229.80
2018-08-20T08:05:55.581Z,245.00
2018-08-20T08:06:55.621Z,234.60
2018-08-20T08:07:55.686Z,224.10
2018-08-20T08:08:55.961Z,269.70
2018-08-20T08:09:55.808Z,228.20
2018-08-20T08:10:55.837Z,262.70
2018-08-20T08:11:55.843Z,261.40
2018-08-20T08:13:56.022Z,303.10
2018-08-20T08:14:55.955Z,275.70
2018-08-20T08:15:55.979Z,230.40
2018-08-20T08:16:56.035Z,252.50
2018-08-20T08:17:56.084Z,269.60
2018-08-20T08:18:56.380Z,263.60
2018-08-20T08:19:56.183Z,269.00
2018-08-20T08:21:56.265Z,261.10
2018-08-20T08:22:56.307Z,262.90
2018-08-20T08:23:56.480Z,277.90
2018-08-20T08:24:56.553Z,270.10
2018-08-20T08:25:56.414Z,240.80
2018-08-20T08:26:56.420Z,292.60
2018-08-20T08:29:58.073Z,299.60
2018-08-20T08:30:56.726Z,297.30
2018-08-20T08:32:56.672Z,304.20
2018-08-20T08:33:56.692Z,308.00
2018-08-20T08:36:56.972Z,333.80
2018-08-20T08:37:56.883Z,339.60
2018-08-20T08:38:56.912Z,283.20
2018-08-20T08:39:56.934Z,351.00
2018-08-20T08:40:56.995Z,274.00
2018-08-20T08:41:57.021Z,342.20
2018-08-20T08:43:57.134Z,374.40
2018-08-20T08:44:57.182Z,369.70
2018-08-20T08:47:57.437Z,320.50
2018-08-20T08:48:57.336Z,333.60
2018-08-20T08:49:57.376Z,298.30
2018-08-20T08:50:57.403Z,353.50
2018-08-20T08:51:57.497Z,410.40
2018-08-20T08:52:58.994Z,351.30
2018-08-20T08:53:57.553Z,325.20
2018-08-20T08:54:57.575Z,318.80
2018-08-20T08:56:57.716Z,320.70
2018-08-20T08:57:57.712Z,306.10
2018-08-20T08:58:57.968Z,347.70
2018-08-20T08:59:59.303Z,341.10
2018-08-20T09:00:57.838Z,365.10
2018-08-20T09:01:57.857Z,327.70
2018-08-20T09:02:57.927Z,352.40
2018-08-20T09:03:57.966Z,359.90
2018-08-20T09:04:57.985Z,344.60
2018-08-20T09:05:58.184Z,293.30
2018-08-20T09:06:58.075Z,303.70
2018-08-20T09:07:58.123Z,347.90
2018-08-20T09:08:58.186Z,314.70
2018-08-20T09:09:58.218Z,343.50
2018-08-20T09:10:59.758Z,319.90
2018-08-20T09:12:58.353Z,284.80
2018-08-20T09:13:58.369Z,316.40
2018-08-20T09:14:58.418Z,309.20
2018-08-20T09:15:58.459Z,289.80
2018-08-20T09:16:58.644Z,271.70
2018-08-20T09:17:58.546Z,280.60
2018-08-20T09:19:58.634Z,286.90
2018-08-20T09:20:58.662Z,271.20
2018-08-20T09:21:58.723Z,282.30
2018-08-20T09:23:58.834Z,274.40
2018-08-20T09:25:58.877Z,258.40
2018-08-20T09:26:58.930Z,267.70
2018-08-20T09:27:59.123Z,264.40
2018-08-20T09:28:59.014Z,280.70
2018-08-20T09:29:59.032Z,266.20
2018-08-20T09:30:59.090Z,256.40
2018-08-20T09:31:59.140Z,249.20
2018-08-20T09:32:59.190Z,243.80
2018-08-20T09:33:59.231Z,228.10
2018-08-20T09:34:59.236Z,227.90
2018-08-20T09:35:59.306Z,231.50
2018-08-20T09:36:59.386Z,211.70
2018-08-20T09:38:00.883Z,214.60
2018-08-20T09:39:59.469Z,207.30
2018-08-20T09:40:59.507Z,198.60
2018-08-20T09:43:59.650Z,199.70
2018-08-20T09:44:59.693Z,199.70
2018-08-20T09:45:59.704Z,200.30
2018-08-20T09:46:59.812Z,196.20
2018-08-20T09:47:59.808Z,187.80
2018-08-20T09:48:59.986Z,196.10
2018-08-20T09:49:59.871Z,189.30
2018-08-20T09:50:59.939Z,190.90
2018-08-20T09:51:59.982Z,182.50
2018-08-20T09:53:00.057Z,188.10
2018-08-20T09:54:00.070Z,194.50
2018-08-20T09:55:00.088Z,190.90
2018-08-20T09:56:00.142Z,186.30
2018-08-20T09:58:00.211Z,189.90
2018-08-20T09:59:00.298Z,194.60
2018-08-20T10:01:00.360Z,295.50
2018-08-20T10:02:00.414Z,177.40
2018-08-20T10:03:00.442Z,186.40
2018-08-20T10:04:00.482Z,193.00
2018-08-20T10:05:00.500Z,186.70
2018-08-20T10:06:00.722Z,316.40
2018-08-20T10:07:00.600Z,340.50
2018-08-20T10:08:00.643Z,349.00
2018-08-20T10:09:00.679Z,199.90
2018-08-20T10:10:00.764Z,219.90
2018-08-20T10:11:00.792Z,234.60
2018-08-20T10:12:00.807Z,216.10
2018-08-20T10:13:00.863Z,211.80
2018-08-20T10:14:00.910Z,187.00
2018-08-20T10:15:00.924Z,209.20
2018-08-20T10:16:01.131Z,206.10
2018-08-20T10:17:01.020Z,232.10
2018-08-20T10:18:01.055Z,212.80
2018-08-20T10:20:01.140Z,228.20
2018-08-20T10:21:01.236Z,213.80
2018-08-20T10:22:01.253Z,243.30
2018-08-20T10:24:01.319Z,211.90
2018-08-20T10:25:01.369Z,238.70
2018-08-20T10:26:01.545Z,255.80
2018-08-20T10:28:01.497Z,175.30
2018-08-20T10:30:01.626Z,168.00
2018-08-20T10:31:01.642Z,125.80
2018-08-20T10:32:01.786Z,120.20
2018-08-20T10:33:01.721Z,119.10
2018-08-20T10:34:01.756Z,95.80
2018-08-20T10:35:01.794Z,116.70
2018-08-20T10:37:02.082Z,105.90
2018-08-20T10:38:02.055Z,73.20
2018-08-20T10:39:01.981Z,48.90
2018-08-20T10:40:02.038Z,41.90
2018-08-20T10:41:02.078Z,35.60
2018-08-20T10:42:03.865Z,29.70
2018-08-20T10:43:02.191Z,27.70
2018-08-20T10:44:02.203Z,25.00
2018-08-20T10:45:02.265Z,29.20
2018-08-20T10:46:02.349Z,43.10
2018-08-20T10:47:02.336Z,49.00
2018-08-20T10:48:02.594Z,48.20
2018-08-20T10:49:03.949Z,56.00
2018-08-20T10:50:02.571Z,54.40
2018-08-20T10:51:02.560Z,58.70
2018-08-20T10:52:02.582Z,53.30
2018-08-20T10:53:02.646Z,62.00
2018-08-20T10:54:02.691Z,56.70
2018-08-20T10:55:04.387Z,59.80
2018-08-20T10:56:02.805Z,58.30
2018-08-20T10:57:02.848Z,62.00
2018-08-20T10:58:02.923Z,54.30
2018-08-20T10:59:02.942Z,55.20
2018-08-20T11:00:02.991Z,55.80
2018-08-20T11:01:03.177Z,46.80
2018-08-20T11:03:03.151Z,44.10
2018-08-20T11:04:03.161Z,43.40
2018-08-20T11:05:03.231Z,36.00
2018-08-20T11:06:03.269Z,33.50
2018-08-20T11:07:03.391Z,46.20
2018-08-20T11:09:03.429Z,44.40
2018-08-20T11:10:03.547Z,35.60
2018-08-20T11:11:03.587Z,35.20
2018-08-20T11:12:05.126Z,37.20
2018-08-20T11:14:36.893Z,36.90
2018-08-20T11:15:03.735Z,35.00
2018-08-20T11:17:03.846Z,32.30
2018-08-20T11:18:03.878Z,33.80
2018-08-20T11:19:03.913Z,35.20
2018-08-20T11:20:03.992Z,34.40
2018-08-20T11:21:04.091Z,32.90
2018-08-20T11:22:04.101Z,46.10
2018-08-20T11:23:04.144Z,29.00
2018-08-20T11:24:05.680Z,28.80
2018-08-20T11:25:04.384Z,35.30
2018-08-20T11:26:04.290Z,29.20
2018-08-20T11:27:04.406Z,26.60
2018-08-20T11:28:04.420Z,30.20
2018-08-20T11:29:04.466Z,25.10
2018-08-20T11:30:06.047Z,23.80
2018-08-20T11:31:04.550Z,24.10
2018-08-20T11:32:04.625Z,21.70
2018-08-20T11:33:04.652Z,22.30
2018-08-20T11:35:04.797Z,22.30
2018-08-20T11:36:04.814Z,23.40
2018-08-20T11:37:04.869Z,28.60
2018-08-20T11:39:04.980Z,25.00
2018-08-20T11:41:05.053Z,25.20
2018-08-20T11:43:05.190Z,25.80
2018-08-20T11:44:05.238Z,26.40
2018-08-20T11:45:05.299Z,25.00
2018-08-20T11:46:05.347Z,25.10
2018-08-20T11:50:05.559Z,25.10
2018-08-20T11:51:05.635Z,26.10
2018-08-20T11:52:05.646Z,26.60
2018-08-20T11:53:05.695Z,25.30
2018-08-20T11:55:05.835Z,29.70
2018-08-20T11:56:05.867Z,30.70
2018-08-20T11:57:05.914Z,31.90
2018-08-20T11:58:05.950Z,28.20
2018-08-20T12:01:06.276Z,28.30
2018-08-20T12:02:06.183Z,26.60
2018-08-20T12:03:06.233Z,25.40
2018-08-20T12:04:06.301Z,25.10
2018-08-20T12:05:06.369Z,25.90
2018-08-20T12:07:06.728Z,26.80
2018-08-20T12:08:06.496Z,26.60
2018-08-20T12:10:06.628Z,23.60
2018-08-20T12:11:06.690Z,24.50
2018-08-20T12:12:06.739Z,24.50
2018-08-20T12:13:08.284Z,25.00
2018-08-20T12:14:06.845Z,25.70
2018-08-20T12:15:06.884Z,24.40
2018-08-20T12:16:06.966Z,24.00
2018-08-20T12:20:07.153Z,23.80
2018-08-20T12:21:07.215Z,24.80
2018-08-20T12:22:07.256Z,24.80
2018-08-20T12:23:07.319Z,25.80
2018-08-20T12:24:07.399Z,26.90
2018-08-20T12:25:08.932Z,27.00
2018-08-20T12:26:07.626Z,28.40
2018-08-20T12:27:07.559Z,26.20
2018-08-20T12:28:07.675Z,27.50
2018-08-20T12:29:07.643Z,27.80
2018-08-20T12:30:07.711Z,25.50
2018-08-20T12:32:09.379Z,28.60
2018-08-20T12:33:07.884Z,29.70
2018-08-20T12:34:07.937Z,39.10
2018-08-20T12:35:07.993Z,30.40
2018-08-20T12:36:08.052Z,25.50
2018-08-20T12:37:08.088Z,26.20
2018-08-20T12:38:08.241Z,26.70
2018-08-20T12:39:08.257Z,25.50
2018-08-20T12:40:08.289Z,23.60
2018-08-20T12:43:08.442Z,27.40
2018-08-20T12:44:08.476Z,28.30
2018-08-20T12:45:08.532Z,30.60
2018-08-20T12:46:08.618Z,32.50
2018-08-20T12:48:08.691Z,29.10
2018-08-20T12:49:08.734Z,30.00
2018-08-20T12:50:08.968Z,27.10
2018-08-20T12:52:08.903Z,33.80
2018-08-20T12:53:08.980Z,32.80
2018-08-20T12:54:09.005Z,27.20
2018-08-20T12:55:09.067Z,30.50
2018-08-20T12:57:09.199Z,33.20
2018-08-20T12:58:09.246Z,39.70
2018-08-20T12:59:09.317Z,48.10
2018-08-20T13:01:09.419Z,83.20
2018-08-20T13:02:10.960Z,78.90
2018-08-20T13:03:09.507Z,44.90
2018-08-20T13:05:09.631Z,39.60
2018-08-20T13:07:09.737Z,64.20
2018-08-20T13:08:09.807Z,47.30
2018-08-20T13:09:09.998Z,41.90
2018-08-20T13:10:09.952Z,49.50
2018-08-20T13:11:10.007Z,46.10
2018-08-20T13:12:10.019Z,36.80
2018-08-20T13:13:10.072Z,37.20
2018-08-20T13:15:10.438Z,44.30
2018-08-20T13:16:10.430Z,51.30
2018-08-20T13:17:10.315Z,43.90
2018-08-20T13:18:10.373Z,38.90
2018-08-20T13:19:10.476Z,37.70
2018-08-20T13:20:10.581Z,36.60
2018-08-20T13:21:10.522Z,32.60
2018-08-20T13:22:10.593Z,32.80
2018-08-20T13:23:10.629Z,31.50
2018-08-20T13:24:10.709Z,29.10
2018-08-20T13:25:10.742Z,26.00
2018-08-20T13:26:12.362Z,28.30
2018-08-20T13:27:11.016Z,32.10
2018-08-20T13:29:10.982Z,24.70
2018-08-20T13:31:11.109Z,32.30
2018-08-20T13:33:11.231Z,29.50
2018-08-20T13:34:11.271Z,25.30
2018-08-20T13:35:11.312Z,23.00
2018-08-20T13:36:11.391Z,22.40
2018-08-20T13:37:11.490Z,22.50
2018-08-20T13:38:11.490Z,22.50
2018-08-20T13:39:11.630Z,22.40
2018-08-20T13:42:11.740Z,22.30
2018-08-20T13:43:11.793Z,22.60
2018-08-20T13:44:11.885Z,23.30
2018-08-20T13:45:11.921Z,23.40
2018-08-20T13:46:11.965Z,22.50
2018-08-20T13:47:12.018Z,22.40
2018-08-20T13:48:12.125Z,22.70
2018-08-20T13:49:12.136Z,23.10
2018-08-20T13:50:12.209Z,22.70
2018-08-20T13:51:12.383Z,22.80
2018-08-20T13:52:12.327Z,22.90
2018-08-20T13:53:12.372Z,23.40
2018-08-20T13:54:12.435Z,26.00
2018-08-20T13:55:12.534Z,27.80
2018-08-20T13:56:12.584Z,28.20
2018-08-20T13:58:12.655Z,26.90
2018-08-20T13:59:12.713Z,25.50
2018-08-20T14:00:12.778Z,28.60
2018-08-20T14:01:12.887Z,30.20
2018-08-20T14:02:12.870Z,30.70
2018-08-20T14:03:13.011Z,30.10
2018-08-20T14:05:13.082Z,28.30
2018-08-20T14:09:13.464Z,27.70
2018-08-20T14:10:15.045Z,28.20
2018-08-20T14:11:13.411Z,28.30
2018-08-20T14:12:13.479Z,24.10
2018-08-20T14:13:13.579Z,23.80
2018-08-20T14:15:13.653Z,23.00
2018-08-20T14:16:13.722Z,23.50
2018-08-20T14:17:13.773Z,24.00
2018-08-20T14:19:13.896Z,21.40
2018-08-20T14:20:13.944Z,21.40
2018-08-20T14:21:14.040Z,21.70
2018-08-20T14:23:14.128Z,22.00
2018-08-20T14:24:14.172Z,22.50
2018-08-20T14:26:14.269Z,23.40
2018-08-20T14:27:14.359Z,22.50
2018-08-20T14:28:14.434Z,21.90
2018-08-20T14:29:14.485Z,23.00
2018-08-20T14:30:14.528Z,21.60
2018-08-20T14:31:14.585Z,20.50
2018-08-20T14:33:16.211Z,21.40
2018-08-20T14:34:14.762Z,20.20
2018-08-20T14:35:14.813Z,19.70
2018-08-20T14:36:14.870Z,20.10
2018-08-20T14:37:14.924Z,20.60
2018-08-20T14:38:14.991Z,18.50
2018-08-20T14:39:15.029Z,21.10
2018-08-20T14:40:15.105Z,20.40
2018-08-20T14:41:15.165Z,20.80
2018-08-20T14:42:15.307Z,18.00
2018-08-20T14:43:15.292Z,18.60
2018-08-20T14:44:15.356Z,18.60
2018-08-20T14:45:15.386Z,17.30
2018-08-20T14:47:15.530Z,21.10
2018-08-20T14:48:15.568Z,23.50
2018-08-20T14:49:15.634Z,18.70
2018-08-20T14:50:15.700Z,19.40